This is the latest recevied weather packets stored in our database for station/object 9W2CEW-1. If no packets are shown the sender has not sent any weather packets the latest 10 day(s).
| Time | Temp. | Humidity | Pressure | Rain* | Wind** | Luminosity | Snow |
|---|---|---|---|---|---|---|---|
| 1777621743 | 34.44° C | 57% | 1000.9 hPa | - | - | - | - |
| 1777620883 | 36.11° C | 52% | 1000.8 hPa | - | - | - | - |
| 1777620843 | 36.11° C | 52% | 1000.8 hPa | - | - | - | - |
| 1777619942 | 36.11° C | 51% | 1001 hPa | - | - | - | - |
| 1777619085 | 35.56° C | 49% | 1001.3 hPa | - | - | - | - |
| 1777619042 | 35.56° C | 49% | 1001.3 hPa | - | - | - | - |
| 1777618142 | 36.11° C | 47% | 1001.5 hPa | - | - | - | - |
| 1777617295 | 36.67° C | 44% | 1001.5 hPa | - | - | - | - |
| 1777617242 | 36.67° C | 44% | 1001.5 hPa | - | - | - | - |
| 1777616375 | 38.89° C | 38% | 1002.2 hPa | - | - | - | - |
| 1777616342 | 38.89° C | 38% | 1002.2 hPa | - | - | - | - |
| 1777615443 | 38.33° C | 40% | 1002.6 hPa | - | - | - | - |
| 1777614638 | 38.89° C | 39% | 1003.1 hPa | - | - | - | - |
| 1777614542 | 38.89° C | 39% | 1003.1 hPa | - | - | - | - |
| 1777613642 | 39.44° C | 37% | 1003.2 hPa | - | - | - | - |
| 1777612806 | 40.56° C | 34% | 1003.8 hPa | - | - | - | - |
| 1777612742 | 40.56° C | 34% | 1003.8 hPa | - | - | - | - |
| 1777611891 | 44.44° C | 29% | 1004.2 hPa | - | - | - | - |
| 1777611842 | 44.44° C | 29% | 1004.2 hPa | - | - | - | - |
| 1777610993 | 41.11° C | 35% | 1004.7 hPa | - | - | - | - |
| 1777610941 | 41.11° C | 35% | 1004.7 hPa | - | - | - | - |
| 1777610274 | 39.44° C | 37% | 1004.7 hPa | - | - | - | - |
| 1777610041 | 39.44° C | 37% | 1004.7 hPa | - | - | - | - |
| 1777609141 | 37.78° C | 39% | 1004.8 hPa | - | - | - | - |
| 1777608303 | 40.56° C | 39% | 1004.8 hPa | - | - | - | - |
* Rain since midnight (hover to see other rain measurements)
** Current wind speed in m/s (hover to see current wind gust speed)